Time;durP1;ratioP1;P1;durP2;ratioP2;P2;SDS_P1;SDS_P2;PMS_P1;PMS_P2;Temp;Humidity;BMP_temperature;BMP_pressure;BME280_temperature;BME280_humidity;BME280_pressure;Samples;Min_cycle;Max_cycle;Signal;HPM_P1;HPM_P2
2024/04/13 00:00:47;;;;;;;17.45;13.95;;;11.90;99.90;;;;;;5252155;27;20006;-73
2024/04/13 00:03:13;;;;;;;18.77;14.85;;;11.90;99.90;;;;;;5252170;27;20066;-74
2024/04/13 00:05:38;;;;;;;18.88;14.40;;;12.00;99.90;;;;;;5241730;27;20001;-73
2024/04/13 00:08:04;;;;;;;21.08;15.00;;;12.10;99.90;;;;;;5208268;27;20081;-73
2024/04/13 00:10:30;;;;;;;21.00;13.63;;;12.10;99.90;;;;;;5208662;27;20000;-74
2024/04/13 00:12:56;;;;;;;19.10;14.35;;;12.20;99.90;;;;;;5152828;27;20073;-74
2024/04/13 00:15:21;;;;;;;17.70;13.55;;;12.20;99.90;;;;;;5120749;27;20014;-74
2024/04/13 00:17:47;;;;;;;18.50;14.13;;;12.30;91.50;;;;;;5165109;27;20095;-75
2024/04/13 00:20:13;;;;;;;19.30;13.50;;;12.30;70.00;;;;;;5197451;27;19996;-75
2024/04/13 00:22:38;;;;;;;18.67;13.35;;;12.40;52.80;;;;;;5185603;27;20011;-74
2024/04/13 00:25:04;;;;;;;20.40;13.20;;;12.50;36.10;;;;;;5232211;27;20502;-74
2024/04/13 00:27:30;;;;;;;16.05;12.65;;;12.50;18.90;;;;;;5265247;27;20434;-74
2024/04/13 00:29:58;;;;;;;20.38;13.38;;;12.50;7.00;;;;;;5208747;27;20304;-74
2024/04/13 00:32:25;;;;;;;19.13;12.60;;;12.50;1.30;;;;;;5208263;27;20007;-74
2024/04/13 00:34:51;;;;;;;19.02;13.30;;;12.50;1.00;;;;;;5184410;27;20004;-74
2024/04/13 00:37:18;;;;;;;16.00;12.18;;;12.50;1.00;;;;;;5155003;27;20008;-74
2024/04/13 00:39:43;;;;;;;17.92;12.70;;;12.60;1.00;;;;;;5194908;27;20448;-74
2024/04/13 00:42:09;;;;;;;15.82;12.60;;;12.60;1.00;;;;;;5178829;27;19997;-74
2024/04/13 00:44:35;;;;;;;17.25;13.23;;;12.60;1.00;;;;;;5203133;27;20506;-74
2024/04/13 00:47:07;;;;;;;17.00;12.95;;;12.60;1.00;;;;;;5211708;27;20075;-74
2024/04/13 00:49:33;;;;;;;18.77;12.85;;;12.70;1.00;;;;;;5237753;27;20009;-74
2024/04/13 00:51:59;;;;;;;15.50;12.23;;;12.70;1.00;;;;;;5245268;27;20011;-74
2024/04/13 00:54:27;;;;;;;18.40;12.30;;;12.70;1.00;;;;;;5244710;27;20057;-75
2024/04/13 00:56:53;;;;;;;14.57;12.15;;;12.70;1.00;;;;;;5218313;27;20000;-74
2024/04/13 00:59:22;;;;;;;17.10;12.75;;;12.70;1.00;;;;;;5185340;27;20000;-74
2024/04/13 01:01:49;;;;;;;19.77;12.75;;;12.70;1.00;;;;;;5234177;27;19999;-74
2024/04/13 01:04:16;;;;;;;17.08;12.35;;;12.70;1.00;;;;;;5245521;27;20494;-74
2024/04/13 01:06:42;;;;;;;16.23;12.55;;;12.70;1.00;;;;;;5245129;27;20017;-74
2024/04/13 01:09:07;;;;;;;20.63;12.23;;;12.70;1.00;;;;;;5244666;27;20445;-74
2024/04/13 01:11:34;;;;;;;16.40;11.98;;;12.70;1.00;;;;;;5312755;27;20001;-74
2024/04/13 01:14:01;;;;;;;16.63;12.30;;;12.70;1.00;;;;;;5370521;26;20456;-75
2024/04/13 01:16:27;;;;;;;17.60;11.75;;;12.80;1.00;;;;;;5382330;26;19992;-74
2024/04/13 01:18:53;;;;;;;18.27;12.80;;;12.70;1.00;;;;;;5382235;26;20011;-75
2024/04/13 01:21:19;;;;;;;18.30;11.93;;;12.80;1.00;;;;;;5278158;27;19991;-74
2024/04/13 01:23:46;;;;;;;17.25;11.80;;;12.80;1.00;;;;;;5211114;27;20011;-74
2024/04/13 01:26:12;;;;;;;16.50;11.90;;;12.80;1.00;;;;;;5238419;27;20062;-74
2024/04/13 01:28:37;;;;;;;18.15;11.48;;;12.80;1.00;;;;;;5244200;27;20383;-75
2024/04/13 01:31:03;;;;;;;17.10;12.25;;;12.80;1.00;;;;;;5145879;27;20001;-75
2024/04/13 01:33:29;;;;;;;14.80;11.40;;;12.80;1.00;;;;;;5113634;28;20009;-75
2024/04/13 01:36:01;;;;;;;16.27;11.40;;;12.90;1.00;;;;;;5113986;28;20009;-75
2024/04/13 01:38:27;;;;;;;16.98;11.18;;;12.90;1.00;;;;;;5113844;28;20008;-75
2024/04/13 01:40:53;;;;;;;19.20;11.25;;;12.90;1.00;;;;;;5113635;28;20506;-75
2024/04/13 01:43:18;;;;;;;17.40;11.18;;;12.90;1.00;;;;;;5113285;28;19998;-75
2024/04/13 01:45:44;;;;;;;14.52;10.55;;;12.90;1.00;;;;;;5081619;28;20009;-75
2024/04/13 01:48:10;;;;;;;15.68;11.13;;;12.90;1.00;;;;;;5081278;28;20009;-75
2024/04/13 01:50:36;;;;;;;16.25;10.80;;;12.90;1.00;;;;;;5082376;28;20006;-75
2024/04/13 01:53:02;;;;;;;17.00;11.80;;;12.90;1.00;;;;;;5131423;27;20349;-75
2024/04/13 01:55:27;;;;;;;15.57;10.55;;;12.90;1.00;;;;;;5195865;27;20000;-75
2024/04/13 01:57:53;;;;;;;14.75;10.05;;;12.90;1.00;;;;;;5210297;27;20031;-74
2024/04/13 02:00:20;;;;;;;17.00;10.45;;;12.90;99.90;;;;;;5210648;27;20451;-75
2024/04/13 02:02:46;;;;;;;16.98;10.80;;;12.90;99.90;;;;;;5236591;27;19999;-75
2024/04/13 02:05:11;;;;;;;15.43;10.35;;;12.90;1.00;;;;;;5296371;27;20004;-75
2024/04/13 02:07:37;;;;;;;15.95;10.38;;;12.90;1.00;;;;;;5311149;27;20380;-75
2024/04/13 02:10:03;;;;;;;15.35;10.18;;;12.90;99.90;;;;;;5311578;27;20434;-74
2024/04/13 02:12:28;;;;;;;17.02;10.82;;;13.00;99.90;;;;;;5311293;27;20066;-76
2024/04/13 02:14:54;;;;;;;14.00;10.40;;;13.00;99.90;;;;;;5311287;27;20015;-75
2024/04/13 02:17:21;;;;;;;15.43;11.02;;;12.90;1.00;;;;;;5243612;27;20006;-75
2024/04/13 02:19:47;;;;;;;16.55;10.77;;;13.00;99.90;;;;;;5268317;27;20136;-75
2024/04/13 02:22:15;;;;;;;15.65;11.20;;;13.00;99.90;;;;;;5310897;27;20005;-75
2024/04/13 02:24:43;;;;;;;15.88;10.57;;;12.90;99.90;;;;;;5243581;27;20315;-75
2024/04/13 02:27:09;;;;;;;15.60;9.80;;;12.90;1.00;;;;;;5210319;27;19991;-74
2024/04/13 02:29:35;;;;;;;12.27;9.57;;;13.00;99.90;;;;;;5184853;27;20479;-74
2024/04/13 02:32:00;;;;;;;14.50;9.77;;;12.90;1.00;;;;;;5177374;27;20043;-74
2024/04/13 02:34:26;;;;;;;13.75;9.63;;;12.90;1.00;;;;;;5144950;27;19993;-74
2024/04/13 02:36:52;;;;;;;16.05;9.77;;;12.90;1.00;;;;;;5210014;27;20008;-74
2024/04/13 02:39:18;;;;;;;14.73;9.63;;;13.00;99.90;;;;;;5152135;27;20461;-74
2024/04/13 02:41:44;;;;;;;14.15;9.55;;;13.00;99.90;;;;;;5145005;27;20053;-74
2024/04/13 02:44:09;;;;;;;17.40;9.45;;;13.00;99.90;;;;;;5144726;27;20005;-75
2024/04/13 02:46:35;;;;;;;14.63;9.45;;;13.00;99.90;;;;;;5144645;27;19997;-74
2024/04/13 02:49:00;;;;;;;12.48;9.63;;;13.00;99.90;;;;;;5169445;27;19996;-74
2024/04/13 02:51:26;;;;;;;13.88;9.23;;;13.10;99.90;;;;;;5177210;27;20017;-74
2024/04/13 02:53:51;;;;;;;12.88;8.77;;;13.10;99.90;;;;;;5177190;27;20007;-74
2024/04/13 02:56:17;;;;;;;13.48;8.77;;;13.10;99.90;;;;;;5225328;27;19998;-74
2024/04/13 02:58:43;;;;;;;12.02;8.57;;;13.10;99.90;;;;;;5242881;27;20081;-74
2024/04/13 03:01:08;;;;;;;13.02;8.75;;;13.00;99.90;;;;;;5310707;27;19989;-74
2024/04/13 03:03:34;;;;;;;14.73;8.98;;;13.00;99.90;;;;;;5311133;26;19995;-74
2024/04/13 03:06:08;;;;;;;13.23;9.07;;;13.00;99.90;;;;;;5311206;26;19994;-74
2024/04/13 03:08:34;;;;;;;11.88;8.50;;;13.00;99.90;;;;;;5310993;27;19994;-75
2024/04/13 03:11:01;;;;;;;12.75;8.52;;;13.00;99.90;;;;;;5302874;27;20030;-75
2024/04/13 03:13:28;;;;;;;11.38;7.90;;;13.00;99.90;;;;;;5310626;27;20449;-75
2024/04/13 03:16:02;;;;;;;14.70;8.55;;;13.00;99.90;;;;;;5311319;27;19998;-74
2024/04/13 03:18:28;;;;;;;13.43;8.55;;;13.00;99.90;;;;;;5310911;27;20038;-75
2024/04/13 03:20:54;;;;;;;11.43;7.70;;;13.00;99.90;;;;;;5310880;27;20005;-74
2024/04/13 03:23:20;;;;;;;14.90;9.27;;;13.00;99.90;;;;;;5276203;27;20072;-74
2024/04/13 03:25:46;;;;;;;13.18;7.88;;;13.00;99.90;;;;;;5276427;27;20006;-74
2024/04/13 03:28:12;;;;;;;10.95;8.07;;;13.00;99.90;;;;;;5276508;27;20425;-75
2024/04/13 03:30:38;;;;;;;12.82;8.13;;;13.00;99.90;;;;;;5276464;27;20030;-75
2024/04/13 03:33:04;;;;;;;13.57;7.82;;;13.00;99.90;;;;;;5220876;27;20316;-74
2024/04/13 03:35:36;;;;;;;12.23;8.10;;;13.00;99.90;;;;;;5176372;27;20004;-74
2024/04/13 03:38:01;;;;;;;11.25;8.05;;;13.10;99.90;;;;;;5177465;27;20000;-74
2024/04/13 03:40:27;;;;;;;11.00;8.25;;;13.10;99.90;;;;;;5176646;27;20475;-75
2024/04/13 03:42:53;;;;;;;15.52;8.23;;;13.10;99.90;;;;;;5209026;27;20506;-74
2024/04/13 03:45:18;;;;;;;13.82;7.68;;;13.00;99.90;;;;;;5209043;27;19996;-74
2024/04/13 03:47:44;;;;;;;12.00;8.15;;;13.00;99.90;;;;;;5176515;27;19997;-74
2024/04/13 03:50:10;;;;;;;13.65;9.13;;;13.00;99.90;;;;;;5176408;27;20428;-74
2024/04/13 03:52:35;;;;;;;12.73;7.90;;;13.00;99.90;;;;;;5242744;27;20434;-74
2024/04/13 03:55:01;;;;;;;14.32;8.32;;;13.10;99.90;;;;;;5242892;27;20027;-74
2024/04/13 03:57:27;;;;;;;11.63;7.88;;;13.10;99.90;;;;;;5242760;27;20035;-74
2024/04/13 03:59:53;;;;;;;15.27;8.77;;;13.10;99.90;;;;;;5242330;27;20414;-75
2024/04/13 04:02:18;;;;;;;13.25;8.32;;;13.10;99.90;;;;;;5242438;27;19999;-74
2024/04/13 04:04:44;;;;;;;14.57;8.18;;;13.10;99.90;;;;;;5234487;27;20007;-75
2024/04/13 04:07:09;;;;;;;10.55;7.45;;;13.10;99.90;;;;;;5267804;27;20053;-75
2024/04/13 04:09:35;;;;;;;12.93;8.52;;;13.10;99.90;;;;;;5274585;27;20415;-75
2024/04/13 04:12:04;;;;;;;12.15;7.85;;;13.10;99.90;;;;;;5275592;27;19995;-74
2024/04/13 04:14:29;;;;;;;14.23;8.43;;;13.10;99.90;;;;;;5193146;27;20021;-74
2024/04/13 04:16:55;;;;;;;10.52;7.68;;;13.20;99.90;;;;;;5176200;27;20362;-74
2024/04/13 04:19:22;;;;;;;11.02;7.60;;;13.10;99.90;;;;;;5200284;27;20420;-74
2024/04/13 04:21:48;;;;;;;12.07;7.63;;;13.20;99.90;;;;;;5209095;27;20432;-74
2024/04/13 04:24:14;;;;;;;14.43;8.50;;;13.20;99.90;;;;;;5233769;27;19999;-74
2024/04/13 04:26:40;;;;;;;11.32;8.30;;;13.20;99.90;;;;;;5242049;27;20058;-74
2024/04/13 04:29:05;;;;;;;12.55;7.65;;;13.30;99.90;;;;;;5301071;27;20004;-74
2024/04/13 04:31:31;;;;;;;10.07;7.25;;;13.20;99.90;;;;;;5309625;27;20039;-74
2024/04/13 04:33:56;;;;;;;12.38;8.05;;;13.30;1.00;;;;;;5309661;27;19994;-74
2024/04/13 04:36:22;;;;;;;11.27;7.82;;;13.30;1.00;;;;;;5334802;26;20010;-75
2024/04/13 04:38:49;;;;;;;12.15;7.63;;;13.30;1.00;;;;;;5343466;26;20443;-75
2024/04/13 04:41:15;;;;;;;13.13;8.15;;;13.40;1.00;;;;;;5343886;26;20387;-75
2024/04/13 04:43:40;;;;;;;12.10;8.25;;;13.30;1.00;;;;;;5343634;26;20008;-75
2024/04/13 04:46:08;;;;;;;12.13;7.75;;;13.40;1.00;;;;;;5344089;26;20015;-74
2024/04/13 04:48:35;;;;;;;14.40;8.50;;;13.50;1.00;;;;;;5343481;26;20004;-75
2024/04/13 04:51:02;;;;;;;12.55;8.25;;;13.50;1.00;;;;;;5274692;27;19995;-75
2024/04/13 04:53:28;;;;;;;12.07;8.02;;;13.50;1.00;;;;;;5275136;27;19996;-75
2024/04/13 04:55:58;;;;;;;14.55;8.27;;;13.60;1.00;;;;;;5275118;27;20019;-74
2024/04/13 04:58:23;;;;;;;14.02;8.13;;;13.60;1.00;;;;;;5275100;27;20072;-74
2024/04/13 05:00:49;;;;;;;10.93;7.65;;;13.60;1.00;;;;;;5329132;26;19993;-74
2024/04/13 05:03:15;;;;;;;11.13;7.40;;;13.60;1.00;;;;;;5343254;26;20009;-74
2024/04/13 05:05:41;;;;;;;12.18;8.02;;;13.60;1.00;;;;;;5343442;26;20074;-74
2024/04/13 05:08:07;;;;;;;11.50;7.20;;;13.60;1.00;;;;;;5274628;27;19995;-73
2024/04/13 05:10:32;;;;;;;12.18;8.15;;;13.50;1.00;;;;;;5274796;27;20013;-73
2024/04/13 05:12:58;;;;;;;11.90;7.82;;;13.50;1.00;;;;;;5240894;27;20003;-73
2024/04/13 05:15:24;;;;;;;12.27;7.97;;;13.50;1.00;;;;;;5174997;27;20001;-73
2024/04/13 05:17:50;;;;;;;11.75;8.00;;;13.60;1.00;;;;;;5174897;27;19997;-73
2024/04/13 05:20:16;;;;;;;11.30;7.88;;;13.90;1.00;;;;;;5175126;27;20461;-73
2024/04/13 05:22:41;;;;;;;10.43;7.75;;;14.00;1.00;;;;;;5177315;27;20007;-73
2024/04/13 05:25:07;;;;;;;9.18;6.85;;;15.10;99.90;;;;;;5178286;27;20012;-74
2024/04/13 05:27:33;;;;;;;10.40;7.25;;;16.30;15.50;;;;;;5181878;27;20499;-74
2024/04/13 05:30:02;;;;;;;9.35;6.63;;;16.40;99.90;;;;;;5178260;27;20011;-73
2024/04/13 05:32:29;;;;;;;8.68;7.00;;;16.80;99.90;;;;;;5178518;27;20069;-73
2024/04/13 05:34:54;;;;;;;10.35;6.45;;;16.60;99.90;;;;;;5178239;27;20097;-74
2024/04/13 05:37:20;;;;;;;10.82;6.50;;;17.40;99.90;;;;;;5145471;27;20001;-73
2024/04/13 05:39:45;;;;;;;9.07;5.43;;;18.50;8.70;;;;;;5194729;27;20011;-74
2024/04/13 05:42:11;;;;;;;12.63;6.38;;;20.00;1.00;;;;;;5210873;27;20416;-74
2024/04/13 05:44:37;;;;;;;9.60;6.10;;;21.60;99.90;;;;;;5186604;27;20000;-74
2024/04/13 05:47:03;;;;;;;9.25;6.20;;;23.20;99.90;;;;;;5227469;27;20338;-74
2024/04/13 05:49:28;;;;;;;10.90;5.43;;;24.40;99.90;;;;;;5244175;27;20062;-74
2024/04/13 05:51:54;;;;;;;13.77;5.70;;;25.00;99.90;;;;;;5244547;27;20330;-74
2024/04/13 05:54:19;;;;;;;7.75;4.90;;;25.80;99.90;;;;;;5244862;27;20075;-75
2024/04/13 05:56:45;;;;;;;9.68;5.13;;;26.00;83.00;;;;;;5243959;27;19995;-75
2024/04/13 05:59:11;;;;;;;8.70;5.15;;;27.00;20.60;;;;;;5243790;27;20417;-74
2024/04/13 06:01:36;;;;;;;7.72;5.03;;;27.40;1.00;;;;;;5294201;27;20544;-74
2024/04/13 06:04:02;;;;;;;7.18;5.00;;;27.80;1.00;;;;;;5311567;27;20067;-73
2024/04/13 06:06:27;;;;;;;8.63;5.05;;;27.50;1.00;;;;;;5345602;26;19993;-72
2024/04/13 06:08:53;;;;;;;5.90;4.80;;;27.60;1.00;;;;;;5370602;26;20000;-73
2024/04/13 06:11:18;;;;;;;9.70;5.30;;;26.20;1.00;;;;;;5345673;26;20004;-72
2024/04/13 06:13:44;;;;;;;6.65;5.10;;;25.10;1.00;;;;;;5380600;26;20494;-73
2024/04/13 06:16:09;;;;;;;7.65;5.63;;;25.10;1.00;;;;;;5380520;26;19992;-72
2024/04/13 06:18:35;;;;;;;9.38;5.65;;;24.30;1.00;;;;;;5345764;26;19999;-73
2024/04/13 06:21:02;;;;;;;8.38;6.10;;;23.80;1.00;;;;;;5345840;26;19996;-73
2024/04/13 06:23:28;;;;;;;8.65;5.70;;;24.10;1.00;;;;;;5243049;27;19995;-75
2024/04/13 06:25:54;;;;;;;7.63;6.00;;;23.50;1.00;;;;;;5177000;27;19993;-74
2024/04/13 06:28:20;;;;;;;6.95;5.93;;;22.20;36.30;;;;;;5112774;27;20139;-74
2024/04/13 06:30:46;;;;;;;9.68;6.68;;;22.10;99.90;;;;;;5104015;28;20002;-75
2024/04/13 06:33:12;;;;;;;8.82;6.07;;;24.70;17.30;;;;;;5112098;28;20451;-73
2024/04/13 06:35:38;;;;;;;10.40;6.47;;;25.20;1.00;;;;;;5081115;28;20423;-73
2024/04/13 06:38:03;;;;;;;8.50;5.93;;;27.30;1.00;;;;;;5035755;28;20000;-73
2024/04/13 06:40:30;;;;;;;6.80;5.90;;;28.30;1.00;;;;;;5049451;28;20006;-73
2024/04/13 06:42:56;;;;;;;9.02;6.28;;;29.60;1.00;;;;;;5072736;28;20074;-73
2024/04/13 06:45:21;;;;;;;9.50;5.72;;;30.20;1.00;;;;;;5081057;28;19999;-73
2024/04/13 06:47:47;;;;;;;7.78;6.68;;;30.20;1.00;;;;;;5080829;28;20002;-72
2024/04/13 06:50:12;;;;;;;7.43;5.95;;;29.30;1.00;;;;;;5026448;28;20015;-73
2024/04/13 06:52:38;;;;;;;8.27;6.30;;;29.70;1.00;;;;;;5019268;28;20576;-72
2024/04/13 06:55:04;;;;;;;7.32;6.32;;;30.50;1.00;;;;;;5063563;28;20558;-72
2024/04/13 06:57:29;;;;;;;12.15;6.07;;;31.10;1.00;;;;;;5103580;28;20580;-72
2024/04/13 06:59:55;;;;;;;7.28;5.57;;;31.60;99.90;;;;;;5112549;27;20013;-71
2024/04/13 07:02:21;;;;;;;7.90;6.78;;;31.60;99.90;;;;;;5182265;27;20051;-72
2024/04/13 07:04:47;;;;;;;9.65;6.43;;;31.90;99.90;;;;;;5243509;27;20005;-73
2024/04/13 07:07:15;;;;;;;8.18;7.20;;;31.20;99.90;;;;;;5291819;27;19993;-74
2024/04/13 07:09:40;;;;;;;7.40;6.65;;;32.30;99.90;;;;;;5310457;27;20381;-73
2024/04/13 07:12:08;;;;;;;9.40;6.57;;;33.20;99.90;;;;;;5233754;27;20006;-72
2024/04/13 07:14:34;;;;;;;8.35;6.53;;;31.90;99.90;;;;;;5242754;27;20031;-73
2024/04/13 07:17:01;;;;;;;7.75;6.78;;;31.20;99.90;;;;;;5243833;27;20069;-73
2024/04/13 07:19:26;;;;;;;8.52;6.75;;;30.30;99.90;;;;;;5243221;27;20005;-73
2024/04/13 07:21:52;;;;;;;9.07;7.07;;;30.40;99.90;;;;;;5285541;27;19993;-74
2024/04/13 07:24:18;;;;;;;8.57;7.38;;;31.60;99.90;;;;;;5310610;27;20004;-82
2024/04/13 07:26:43;;;;;;;9.88;7.60;;;31.90;99.90;;;;;;5276288;27;20041;-83
2024/04/13 07:29:09;;;;;;;8.63;7.65;;;32.30;99.90;;;;;;5276275;27;20106;-84
2024/04/13 07:31:35;;;;;;;10.98;7.97;;;31.60;99.90;;;;;;5275997;27;20006;-84
2024/04/13 07:34:00;;;;;;;9.60;7.85;;;30.40;99.90;;;;;;5242737;27;20058;-81
2024/04/13 07:36:26;;;;;;;9.20;7.63;;;29.00;99.90;;;;;;5217539;27;19992;-83
2024/04/13 07:38:51;;;;;;;8.77;7.60;;;28.80;99.90;;;;;;5209811;27;19996;-83
2024/04/13 07:41:17;;;;;;;11.38;8.27;;;27.20;99.90;;;;;;5209339;27;20019;-81
2024/04/13 07:43:42;;;;;;;10.48;8.48;;;27.70;99.90;;;;;;5209567;27;19995;-85
2024/04/13 07:46:08;;;;;;;9.68;8.35;;;30.10;99.90;;;;;;5243023;27;20010;-90
2024/04/13 07:48:33;;;;;;;11.13;8.27;;;30.10;99.90;;;;;;5243078;27;19999;-85
2024/04/13 07:50:59;;;;;;;10.45;8.70;;;29.30;99.90;;;;;;5276670;27;20000;-84
2024/04/13 07:53:25;;;;;;;10.27;7.55;;;29.20;99.90;;;;;;5242743;27;19995;-86
2024/04/13 07:55:51;;;;;;;9.35;7.25;;;31.10;99.90;;;;;;5243009;27;20019;-79
2024/04/13 07:58:16;;;;;;;17.60;14.38;;;32.20;99.90;;;;;;5174988;27;20445;-79
2024/04/13 08:00:42;;;;;;;9.02;6.95;;;33.70;99.90;;;;;;5130715;27;20013;-80
2024/04/13 08:03:07;;;;;;;8.38;7.15;;;34.50;99.90;;;;;;5113117;27;20047;-79
2024/04/13 08:05:33;;;;;;;10.63;7.28;;;33.70;99.90;;;;;;5208139;27;20388;-78
2024/04/13 08:07:58;;;;;;;10.10;6.80;;;31.20;99.90;;;;;;5222067;27;20427;-78
2024/04/13 08:10:24;;;;;;;10.23;7.47;;;30.60;99.90;;;;;;5242082;27;19998;-78
2024/04/13 08:12:49;;;;;;;12.85;7.60;;;32.90;99.90;;;;;;5208117;27;20152;-81
2024/04/13 08:15:15;;;;;;;8.82;7.93;;;30.50;99.90;;;;;;5175411;27;19996;-78
2024/04/13 08:17:41;;;;;;;9.95;7.60;;;28.60;99.90;;;;;;5152915;27;20009;-79
2024/04/13 08:20:09;;;;;;;9.02;6.78;;;28.40;99.90;;;;;;5142945;27;19997;-78
2024/04/13 08:22:35;;;;;;;12.07;7.97;;;28.20;99.90;;;;;;5143046;27;19997;-78
2024/04/13 08:25:00;;;;;;;8.35;6.60;;;27.60;99.90;;;;;;5119963;27;20450;-77
2024/04/13 08:27:26;;;;;;;7.32;6.40;;;29.60;99.90;;;;;;5135742;27;20001;-79
2024/04/13 08:29:52;;;;;;;13.43;7.25;;;31.20;99.90;;;;;;5175441;27;20008;-77
2024/04/13 08:32:18;;;;;;;13.55;12.00;;;33.10;99.90;;;;;;5174851;27;19992;-77
2024/04/13 08:34:44;;;;;;;10.90;8.75;;;34.10;99.90;;;;;;5175034;27;20072;-80
2024/04/13 08:37:09;;;;;;;9.75;7.68;;;34.10;99.90;;;;;;5198899;27;20588;-80
2024/04/13 08:39:38;;;;;;;8.73;7.53;;;32.90;99.90;;;;;;5314986;26;20016;-78
2024/04/13 08:42:07;;;;;;;7.80;6.90;;;32.40;99.90;;;;;;5343690;26;20444;-78
2024/04/13 08:44:34;;;;;;;10.13;7.60;;;30.40;99.90;;;;;;5274642;27;20022;-79
2024/04/13 08:47:00;;;;;;;8.00;6.57;;;29.00;99.90;;;;;;5241202;27;20005;-79
2024/04/13 08:49:36;;;;;;;7.90;6.40;;;28.60;99.90;;;;;;5240904;27;20003;-78
2024/04/13 08:52:05;;;;;;;9.45;6.22;;;28.90;99.90;;;;;;5241857;27;19998;-78
2024/04/13 08:54:31;;;;;;;8.25;6.57;;;28.40;99.90;;;;;;5175198;27;20031;-79
2024/04/13 08:56:59;;;;;;;9.55;5.95;;;29.50;99.90;;;;;;5176955;27;20000;-80
2024/04/13 08:59:27;;;;;;;7.45;5.80;;;31.70;99.90;;;;;;5178446;27;20332;-80
2024/04/13 09:01:55;;;;;;;8.00;5.22;;;31.20;99.90;;;;;;5178504;27;20441;-80
2024/04/13 09:04:22;;;;;;;9.10;5.60;;;31.10;99.90;;;;;;5178591;27;20428;-80
2024/04/13 09:06:48;;;;;;;7.70;4.82;;;29.70;99.90;;;;;;5114249;28;19997;-78
2024/04/13 09:09:14;;;;;;;6.88;5.43;;;31.10;99.90;;;;;;5082089;28;20006;-79
2024/04/13 09:11:40;;;;;;;6.43;4.68;;;32.30;99.90;;;;;;5053509;28;20158;-79
2024/04/13 09:14:06;;;;;;;5.22;4.15;;;34.10;99.90;;;;;;5050728;28;20014;-79
2024/04/13 09:16:33;;;;;;;6.43;4.05;;;34.90;99.90;;;;;;5078046;28;20010;-79
2024/04/13 09:18:59;;;;;;;7.63;4.38;;;33.10;99.90;;;;;;5081533;28;20436;-80
2024/04/13 09:21:31;;;;;;;6.80;3.83;;;31.70;99.90;;;;;;5081759;28;20011;-80
2024/04/13 09:23:56;;;;;;;8.15;4.13;;;28.60;99.90;;;;;;5066488;28;20140;-78
2024/04/13 09:26:22;;;;;;;10.27;3.88;;;30.70;99.90;;;;;;5112873;28;20014;-80
2024/04/13 09:28:48;;;;;;;14.20;4.45;;;29.40;99.90;;;;;;5110769;28;20002;-79
2024/04/13 09:31:16;;;;;;;6.43;3.75;;;29.90;99.90;;;;;;5185554;27;19999;-80
2024/04/13 09:33:49;;;;;;;9.13;4.35;;;30.50;99.90;;;;;;5241229;27;20447;-80
2024/04/13 09:36:22;;;;;;;7.85;4.22;;;29.90;99.90;;;;;;5208034;27;19992;-80
2024/04/13 09:38:48;;;;;;;7.20;4.00;;;31.20;99.90;;;;;;5144351;27;20001;-81
2024/04/13 09:41:13;;;;;;;6.30;3.33;;;33.40;99.90;;;;;;5144949;27;20374;-80
2024/04/13 09:43:39;;;;;;;7.05;3.28;;;34.40;99.90;;;;;;5145838;27;20001;-79
2024/04/13 09:46:05;;;;;;;7.90;3.67;;;34.30;99.90;;;;;;5138172;27;20010;-79
2024/04/13 09:48:30;;;;;;;9.43;3.70;;;35.00;99.90;;;;;;5112919;28;20002;-79
2024/04/13 09:51:00;;;;;;;5.75;3.92;;;36.40;99.90;;;;;;5140474;27;20001;-79
2024/04/13 09:53:26;;;;;;;6.30;3.35;;;36.40;99.90;;;;;;5177532;27;20396;-81
2024/04/13 09:55:52;;;;;;;11.93;4.15;;;36.80;99.90;;;;;;5206340;27;20052;-81
2024/04/13 09:58:18;;;;;;;7.35;3.90;;;34.80;99.90;;;;;;5210752;27;20010;-80
2024/04/13 10:00:46;;;;;;;4.25;3.80;;;33.80;99.90;;;;;;5210994;27;20077;-79
2024/04/13 10:03:15;;;;;;;9.15;3.65;;;31.80;99.90;;;;;;5210837;27;20444;-79
2024/04/13 10:05:43;;;;;;;6.10;3.15;;;32.80;99.90;;;;;;5177628;27;20352;-79
2024/04/13 10:08:09;;;;;;;7.55;3.20;;;33.00;99.90;;;;;;5159883;27;20009;-80
2024/04/13 10:10:38;;;;;;;17.83;3.65;;;31.40;99.90;;;;;;5138541;27;20325;-79
2024/04/13 10:13:04;;;;;;;10.13;3.50;;;29.70;99.90;;;;;;5145050;27;20438;-82
2024/04/13 10:15:31;;;;;;;8.93;3.35;;;28.80;99.90;;;;;;5145541;27;19997;-81
2024/04/13 10:17:58;;;;;;;9.02;3.60;;;30.20;99.90;;;;;;5177158;27;20091;-81
2024/04/13 10:20:26;;;;;;;6.50;3.42;;;32.20;99.90;;;;;;5150315;27;19997;-79
2024/04/13 10:22:58;;;;;;;11.93;3.45;;;32.80;99.90;;;;;;5172992;27;20435;-82
2024/04/13 10:25:31;;;;;;;6.55;3.03;;;32.10;99.90;;;;;;5234829;27;19999;-80
2024/04/13 10:28:08;;;;;;;6.05;3.15;;;31.10;99.90;;;;;;5274294;27;20360;-80
2024/04/13 10:30:56;;;;;;;7.95;3.30;;;30.00;99.90;;;;;;5276502;27;20090;-81
2024/04/13 10:33:28;;;;;;;7.45;3.40;;;28.60;99.90;;;;;;5277133;27;19998;-84
2024/04/13 10:35:56;;;;;;;6.28;3.20;;;28.30;99.90;;;;;;5277801;27;20069;-81
2024/04/13 10:38:23;;;;;;;8.55;3.72;;;27.30;99.90;;;;;;5277036;27;20568;-81
2024/04/13 10:40:50;;;;;;;5.90;2.90;;;26.90;99.90;;;;;;5243139;27;20026;-81
2024/04/13 10:43:17;;;;;;;5.55;3.35;;;26.70;99.90;;;;;;5296921;26;20416;-80
2024/04/13 10:45:53;;;;;;;8.57;3.50;;;27.50;99.90;;;;;;5276778;27;20005;-79
2024/04/13 10:48:22;;;;;;;9.15;3.45;;;27.80;99.90;;;;;;5277268;27;19998;-80
2024/04/13 10:50:49;;;;;;;10.25;3.90;;;27.00;99.90;;;;;;5277113;27;20557;-79
2024/04/13 10:53:15;;;;;;;7.72;3.78;;;27.00;99.90;;;;;;5276915;27;20050;-80
2024/04/13 10:55:41;;;;;;;10.80;3.78;;;26.70;99.90;;;;;;5276647;27;20005;-79
2024/04/13 10:58:07;;;;;;;10.30;3.97;;;26.30;99.90;;;;;;5272079;27;19995;-80
2024/04/13 11:00:33;;;;;;;6.95;3.70;;;26.30;99.90;;;;;;5245293;27;19995;-81
2024/04/13 11:03:00;;;;;;;14.63;4.10;;;26.50;99.90;;;;;;5276992;27;20053;-80
2024/04/13 11:05:26;;;;;;;7.15;4.07;;;26.70;99.90;;;;;;5276626;27;20449;-81
2024/04/13 11:07:51;;;;;;;7.65;4.40;;;25.70;99.90;;;;;;5276846;27;19998;-81
2024/04/13 11:10:18;;;;;;;12.15;4.13;;;25.20;99.90;;;;;;5276327;27;19994;-80
2024/04/13 11:12:44;;;;;;;8.50;4.32;;;24.70;99.90;;;;;;5276073;27;20004;-78
2024/04/13 11:15:10;;;;;;;8.40;4.10;;;25.00;99.90;;;;;;5276270;27;19995;-80
2024/04/13 11:17:35;;;;;;;6.20;3.83;;;25.10;99.90;;;;;;5276214;27;20065;-80
2024/04/13 11:20:01;;;;;;;9.50;4.10;;;25.80;99.90;;;;;;5276072;27;20003;-83
2024/04/13 11:22:28;;;;;;;10.18;3.88;;;26.00;99.90;;;;;;5276160;27;20338;-81
2024/04/13 11:24:55;;;;;;;11.32;3.50;;;25.70;99.90;;;;;;5310261;26;20096;-78
2024/04/13 11:27:22;;;;;;;7.03;4.22;;;26.10;99.90;;;;;;5344563;26;20020;-81
2024/04/13 11:29:49;;;;;;;6.93;3.22;;;26.00;99.90;;;;;;5345072;26;20001;-81
2024/04/13 11:32:15;;;;;;;8.77;3.88;;;26.70;99.90;;;;;;5310342;26;19993;-83
2024/04/13 11:34:41;;;;;;;10.57;4.03;;;26.90;99.90;;;;;;5310532;27;20005;-79
2024/04/13 11:37:10;;;;;;;9.10;3.80;;;26.40;99.90;;;;;;5310188;27;20064;-84
2024/04/13 11:39:42;;;;;;;7.97;3.50;;;26.60;99.90;;;;;;5310356;27;20432;-84
2024/04/13 11:42:07;;;;;;;6.65;3.28;;;27.10;99.90;;;;;;5310573;27;20021;-79
2024/04/13 11:44:36;;;;;;;9.80;3.47;;;26.80;99.90;;;;;;5187867;27;19996;-80
2024/04/13 11:47:02;;;;;;;6.60;3.30;;;26.60;99.90;;;;;;5242371;27;20003;-84
2024/04/13 11:49:28;;;;;;;6.38;3.22;;;26.50;99.90;;;;;;5242398;27;20043;-85
2024/04/13 11:51:54;;;;;;;7.47;3.58;;;26.20;99.90;;;;;;5242533;27;20435;-75
2024/04/13 11:54:20;;;;;;;6.97;3.33;;;25.60;99.90;;;;;;5275837;27;20018;-76
2024/04/13 11:56:46;;;;;;;9.75;3.25;;;25.60;99.90;;;;;;5214598;27;19992;-74
2024/04/13 11:59:14;;;;;;;9.70;3.28;;;25.80;99.90;;;;;;5187304;27;20049;-73
2024/04/13 12:01:40;;;;;;;6.47;2.72;;;26.00;99.90;;;;;;5175845;27;20007;-74
2024/04/13 12:04:06;;;;;;;5.65;2.60;;;26.00;99.90;;;;;;5175550;27;19996;-74
2024/04/13 12:06:32;;;;;;;10.48;3.08;;;25.80;99.90;;;;;;5208368;27;20391;-75
2024/04/13 12:08:57;;;;;;;12.10;2.75;;;25.60;99.90;;;;;;5208502;27;20653;-77
2024/04/13 12:11:30;;;;;;;7.03;2.25;;;25.40;99.90;;;;;;5208428;27;20000;-78
2024/04/13 12:13:59;;;;;;;7.47;2.38;;;25.10;99.90;;;;;;5208668;27;20517;-76
2024/04/13 12:16:26;;;;;;;14.68;3.35;;;25.30;99.90;;;;;;5235570;27;20399;-77
2024/04/13 12:18:51;;;;;;;12.10;2.80;;;25.40;99.90;;;;;;5122704;27;20010;-75
2024/04/13 12:21:17;;;;;;;21.02;4.15;;;25.30;99.90;;;;;;5175740;27;19997;-75
2024/04/13 12:23:43;;;;;;;8.02;2.53;;;25.10;99.90;;;;;;5175805;27;19992;-74
2024/04/13 12:26:12;;;;;;;10.45;2.50;;;25.00;99.90;;;;;;5175775;27;20000;-74
2024/04/13 12:28:38;;;;;;;10.05;2.70;;;24.90;99.90;;;;;;5148839;27;19998;-74
2024/04/13 12:31:04;;;;;;;10.25;2.53;;;24.90;99.90;;;;;;5143407;27;19997;-73
2024/04/13 12:33:29;;;;;;;6.00;2.10;;;25.40;99.90;;;;;;5146323;27;19997;-72
2024/04/13 12:35:55;;;;;;;6.50;2.58;;;25.50;99.90;;;;;;5200280;27;20000;-74
2024/04/13 12:38:22;;;;;;;8.60;2.33;;;25.00;99.90;;;;;;5211323;27;20027;-76